createdAt,value
2022-11-25T00:01:32.752Z,7.80
2022-11-25T00:04:03.105Z,7.80
2022-11-25T00:06:33.077Z,7.80
2022-11-25T00:09:03.244Z,7.80
2022-11-25T00:11:31.541Z,7.80
2022-11-25T00:13:59.791Z,7.80
2022-11-25T00:16:28.179Z,7.80
2022-11-25T00:18:58.758Z,7.80
2022-11-25T00:21:30.167Z,7.80
2022-11-25T00:23:59.689Z,7.90
2022-11-25T00:26:29.046Z,7.80
2022-11-25T00:29:00.653Z,7.80
2022-11-25T00:31:31.129Z,7.80
2022-11-25T00:33:59.612Z,7.80
2022-11-25T00:36:31.242Z,7.70
2022-11-25T00:39:01.758Z,7.80
2022-11-25T00:41:48.660Z,7.80
2022-11-25T00:44:36.482Z,7.80
2022-11-25T00:47:05.642Z,7.90
2022-11-25T00:49:34.260Z,7.80
2022-11-25T00:52:03.959Z,7.80
2022-11-25T00:54:32.496Z,7.80
2022-11-25T00:57:01.316Z,7.80
2022-11-25T00:59:30.093Z,7.80
2022-11-25T01:01:58.379Z,7.80
2022-11-25T01:04:26.877Z,7.90
2022-11-25T01:06:56.942Z,7.90
2022-11-25T01:09:26.649Z,7.90
2022-11-25T01:11:55.077Z,7.90
2022-11-25T01:14:24.273Z,7.90
2022-11-25T01:16:53.125Z,8.00
2022-11-25T01:19:22.112Z,8.00
2022-11-25T01:21:50.344Z,8.00
2022-11-25T01:24:19.221Z,8.00
2022-11-25T01:26:48.937Z,8.00
2022-11-25T01:29:19.294Z,8.00
2022-11-25T01:31:48.601Z,8.00
2022-11-25T01:34:19.253Z,8.00
2022-11-25T01:36:48.074Z,7.90
2022-11-25T01:39:19.259Z,8.00
2022-11-25T01:41:49.783Z,8.00
2022-11-25T01:44:21.053Z,8.00
2022-11-25T01:46:59.865Z,8.10
2022-11-25T01:49:36.962Z,8.10
2022-11-25T01:52:13.505Z,8.10
2022-11-25T01:54:48.293Z,8.10
2022-11-25T01:57:21.927Z,8.10
2022-11-25T01:59:53.685Z,8.10
2022-11-25T02:02:23.057Z,8.20
2022-11-25T02:04:51.725Z,8.10
2022-11-25T02:07:26.411Z,8.20
2022-11-25T02:09:55.423Z,8.20
2022-11-25T02:12:25.437Z,8.20
2022-11-25T02:14:55.467Z,8.20
2022-11-25T02:17:24.015Z,8.20
2022-11-25T02:20:02.961Z,8.20
2022-11-25T02:22:42.221Z,8.20
2022-11-25T02:25:16.413Z,8.20
2022-11-25T02:27:47.481Z,8.20
2022-11-25T02:30:16.107Z,8.20
2022-11-25T02:32:45.613Z,8.20
2022-11-25T02:35:28.177Z,8.20
2022-11-25T02:38:00.266Z,8.20
2022-11-25T02:40:31.337Z,8.20
2022-11-25T02:43:01.273Z,8.20
2022-11-25T02:45:40.856Z,8.20
2022-11-25T02:48:09.181Z,8.20
2022-11-25T02:50:37.767Z,8.20
2022-11-25T02:53:06.509Z,8.20
2022-11-25T02:55:36.150Z,8.20
2022-11-25T02:58:04.756Z,8.10
2022-11-25T03:00:32.985Z,8.10
2022-11-25T03:03:01.322Z,8.10
2022-11-25T03:05:29.611Z,8.10
2022-11-25T03:07:57.935Z,8.10
2022-11-25T03:10:26.550Z,8.10
2022-11-25T03:12:56.284Z,8.10
2022-11-25T03:15:24.925Z,8.10
2022-11-25T03:17:53.937Z,8.10
2022-11-25T03:20:22.693Z,8.10
2022-11-25T03:22:51.231Z,8.20
2022-11-25T03:25:19.953Z,8.20
2022-11-25T03:27:48.251Z,8.10
2022-11-25T03:30:20.702Z,8.10
2022-11-25T03:32:48.979Z,8.10
2022-11-25T03:35:17.610Z,8.10
2022-11-25T03:37:46.525Z,8.10
2022-11-25T03:40:16.631Z,8.10
2022-11-25T03:42:45.056Z,8.10
2022-11-25T03:45:14.926Z,8.10
2022-11-25T03:47:45.680Z,8.10
2022-11-25T03:50:15.882Z,8.20
2022-11-25T03:52:44.176Z,8.20
2022-11-25T03:55:13.273Z,8.20
2022-11-25T03:57:41.953Z,8.20
2022-11-25T04:00:11.267Z,8.20
2022-11-25T04:02:39.552Z,8.30
2022-11-25T04:05:10.154Z,8.30
2022-11-25T04:07:38.316Z,8.30
2022-11-25T04:10:07.819Z,8.30
2022-11-25T04:12:46.704Z,8.20
2022-11-25T04:15:15.874Z,8.20
2022-11-25T04:17:44.189Z,8.20
2022-11-25T04:20:15.531Z,8.20
2022-11-25T04:22:44.160Z,8.20
2022-11-25T04:25:13.182Z,8.20
2022-11-25T04:27:41.402Z,8.20
2022-11-25T04:30:10.809Z,8.20
2022-11-25T04:32:39.830Z,8.20
2022-11-25T04:35:08.792Z,8.20
2022-11-25T04:37:38.557Z,8.30
2022-11-25T04:40:08.980Z,8.30
2022-11-25T04:42:39.630Z,8.40
2022-11-25T04:45:25.648Z,8.30
2022-11-25T04:47:53.996Z,8.30
2022-11-25T04:50:24.034Z,8.30
2022-11-25T04:52:53.750Z,8.30
2022-11-25T04:55:22.008Z,8.30
2022-11-25T04:57:50.237Z,8.40
2022-11-25T05:00:18.450Z,8.40
2022-11-25T05:02:46.812Z,8.30
2022-11-25T05:05:15.182Z,8.30
2022-11-25T05:07:43.524Z,8.30
2022-11-25T05:10:13.307Z,8.30
2022-11-25T05:12:41.773Z,8.30
2022-11-25T05:15:11.246Z,8.30
2022-11-25T05:17:40.361Z,8.30
2022-11-25T05:20:10.346Z,8.30
2022-11-25T05:22:38.587Z,8.30
2022-11-25T05:25:07.491Z,8.30
2022-11-25T05:27:37.194Z,8.30
2022-11-25T05:30:06.392Z,8.30
2022-11-25T05:32:34.595Z,8.30
2022-11-25T05:35:02.820Z,8.30
2022-11-25T05:37:31.043Z,8.40
2022-11-25T05:39:59.245Z,8.40
2022-11-25T05:42:27.578Z,8.40
2022-11-25T05:44:57.228Z,8.40
2022-11-25T05:47:25.463Z,8.40
2022-11-25T05:49:53.700Z,8.40
2022-11-25T05:52:21.990Z,8.40
2022-11-25T05:54:54.383Z,8.40
2022-11-25T05:57:25.181Z,8.40
2022-11-25T05:59:53.449Z,8.40
2022-11-25T06:02:23.218Z,8.40
2022-11-25T06:04:51.492Z,8.40
2022-11-25T06:07:19.817Z,8.40
2022-11-25T06:09:48.131Z,8.40
2022-11-25T06:12:16.341Z,8.40
2022-11-25T06:14:44.605Z,8.40
2022-11-25T06:17:12.874Z,8.40
2022-11-25T06:19:42.526Z,8.40
2022-11-25T06:22:10.832Z,8.40
2022-11-25T06:24:39.086Z,8.40
2022-11-25T06:27:07.558Z,8.40
2022-11-25T06:29:36.690Z,8.30
2022-11-25T06:32:05.686Z,8.30
2022-11-25T06:34:34.340Z,8.30
2022-11-25T06:37:04.189Z,8.30
2022-11-25T06:39:32.435Z,8.20
2022-11-25T06:42:00.651Z,8.20
2022-11-25T06:44:29.191Z,8.10
2022-11-25T06:46:57.561Z,8.10
2022-11-25T06:49:26.221Z,8.10
2022-11-25T06:51:54.437Z,8.00
2022-11-25T06:54:24.096Z,8.00
2022-11-25T06:56:53.822Z,8.00
2022-11-25T06:59:22.581Z,8.00
2022-11-25T07:01:50.889Z,8.00
2022-11-25T07:04:19.205Z,8.00
2022-11-25T07:06:47.437Z,8.00
2022-11-25T07:09:15.722Z,8.00
2022-11-25T07:11:45.597Z,8.10
2022-11-25T07:14:16.165Z,8.10
2022-11-25T07:16:46.637Z,8.20
2022-11-25T07:19:16.783Z,8.20
2022-11-25T07:21:46.024Z,8.20
2022-11-25T07:24:15.902Z,8.20
2022-11-25T07:26:46.471Z,8.20
2022-11-25T07:29:51.615Z,8.30
2022-11-25T07:32:10.317Z,8.30
2022-11-25T07:34:39.336Z,8.30
2022-11-25T07:37:08.208Z,8.30
2022-11-25T07:39:36.986Z,8.20
2022-11-25T07:42:07.005Z,8.30
2022-11-25T07:44:35.438Z,8.30
2022-11-25T07:47:03.910Z,8.30
2022-11-25T07:49:32.184Z,8.30
2022-11-25T07:52:02.364Z,8.30
2022-11-25T07:54:31.111Z,8.30
2022-11-25T07:57:00.176Z,8.30
2022-11-25T07:59:29.972Z,8.40
2022-11-25T08:01:58.348Z,8.40
2022-11-25T08:04:26.684Z,8.50
2022-11-25T08:06:55.563Z,8.50
2022-11-25T08:09:25.430Z,8.50
2022-11-25T08:11:54.202Z,8.60
2022-11-25T08:14:22.477Z,8.70
2022-11-25T08:16:52.260Z,8.70
2022-11-25T08:19:20.958Z,8.70
2022-11-25T08:21:49.206Z,8.80
2022-11-25T08:24:19.106Z,8.80
2022-11-25T08:26:47.671Z,8.80
2022-11-25T08:29:18.252Z,8.80
2022-11-25T08:31:46.849Z,8.90
2022-11-25T08:34:20.989Z,8.90
2022-11-25T08:36:49.386Z,8.90
2022-11-25T08:42:08.365Z,9.00
2022-11-25T08:44:37.368Z,9.00
2022-11-25T08:47:05.772Z,9.00
2022-11-25T08:49:40.966Z,9.00
2022-11-25T08:52:10.481Z,9.10
2022-11-25T08:54:39.390Z,9.10
2022-11-25T08:57:07.794Z,9.10
2022-11-25T08:59:36.526Z,9.10
2022-11-25T09:02:05.862Z,9.20
2022-11-25T09:04:35.786Z,9.20
2022-11-25T09:07:06.272Z,9.20
2022-11-25T09:09:35.058Z,9.30
2022-11-25T09:12:04.015Z,9.30
2022-11-25T09:14:32.349Z,9.40
2022-11-25T09:17:02.101Z,9.40
2022-11-25T09:19:30.369Z,9.50
2022-11-25T09:22:00.032Z,9.50
2022-11-25T09:24:28.335Z,9.60
2022-11-25T09:26:56.735Z,9.60
2022-11-25T09:29:25.287Z,9.60
2022-11-25T09:31:55.113Z,9.60
2022-11-25T09:34:23.606Z,9.70
2022-11-25T09:36:51.889Z,9.70
2022-11-25T09:39:21.605Z,9.70
2022-11-25T09:42:19.524Z,9.70
2022-11-25T09:45:21.422Z,9.70
2022-11-25T09:47:59.310Z,9.70
2022-11-25T09:50:41.451Z,9.70
2022-11-25T09:53:24.396Z,9.70
2022-11-25T09:56:01.637Z,9.60
2022-11-25T09:58:36.273Z,9.70
2022-11-25T10:01:07.679Z,9.70
2022-11-25T10:03:41.413Z,9.80
2022-11-25T10:06:16.375Z,9.90
2022-11-25T10:08:46.859Z,10.00
2022-11-25T10:11:27.868Z,10.00
2022-11-25T10:14:02.476Z,10.10
2022-11-25T10:16:36.831Z,10.10
2022-11-25T10:19:13.996Z,10.00
2022-11-25T10:21:42.277Z,10.00
2022-11-25T10:24:17.092Z,10.00
2022-11-25T10:26:50.098Z,9.90
2022-11-25T10:29:25.438Z,9.90
2022-11-25T10:32:01.097Z,9.90
2022-11-25T10:34:37.107Z,9.90
2022-11-25T10:37:14.988Z,10.00
2022-11-25T10:39:43.273Z,10.10
2022-11-25T10:42:23.168Z,10.10
2022-11-25T10:44:51.852Z,10.20
2022-11-25T10:47:38.409Z,10.20
2022-11-25T10:50:17.456Z,10.30
2022-11-25T10:52:52.241Z,10.40
2022-11-25T10:55:24.276Z,10.40
2022-11-25T10:57:54.447Z,10.40
2022-11-25T11:00:29.574Z,10.40
2022-11-25T11:02:59.089Z,10.40
2022-11-25T11:05:30.362Z,10.50
2022-11-25T11:08:19.585Z,10.50
2022-11-25T11:10:54.336Z,10.60
2022-11-25T11:13:33.395Z,10.60
2022-11-25T11:16:02.044Z,10.70
2022-11-25T11:18:41.536Z,10.70
2022-11-25T11:21:23.888Z,10.70
2022-11-25T11:23:55.027Z,10.70
2022-11-25T11:26:26.360Z,10.70
2022-11-25T11:29:13.877Z,10.70
2022-11-25T11:31:47.025Z,10.70
2022-11-25T11:34:41.964Z,10.70
2022-11-25T11:37:24.066Z,10.80
2022-11-25T11:40:03.168Z,10.80
2022-11-25T11:42:40.493Z,10.80
2022-11-25T11:45:23.733Z,10.70
2022-11-25T11:48:05.131Z,10.70
2022-11-25T11:50:35.430Z,10.70
2022-11-25T11:53:11.965Z,10.60
2022-11-25T11:56:19.021Z,10.60
2022-11-25T11:58:55.285Z,10.50
2022-11-25T12:01:40.019Z,10.50
2022-11-25T12:04:19.059Z,10.40
2022-11-25T12:07:03.998Z,10.40
2022-11-25T12:09:40.302Z,10.40
2022-11-25T12:12:15.861Z,10.30
2022-11-25T12:14:47.848Z,10.40
2022-11-25T12:17:24.637Z,10.40
2022-11-25T12:19:59.804Z,10.30
2022-11-25T12:22:30.882Z,10.40
2022-11-25T12:25:08.850Z,10.30
2022-11-25T12:27:41.559Z,10.30
2022-11-25T12:30:14.025Z,10.30
2022-11-25T12:32:52.485Z,10.30
2022-11-25T12:35:28.564Z,10.20
2022-11-25T12:38:05.169Z,10.20
2022-11-25T12:40:37.412Z,10.20
2022-11-25T12:43:19.381Z,10.10
2022-11-25T12:45:53.070Z,10.10
2022-11-25T12:48:22.810Z,10.10
2022-11-25T12:51:04.686Z,10.00
2022-11-25T12:53:39.595Z,10.00
2022-11-25T12:56:16.416Z,10.00
2022-11-25T12:58:55.170Z,10.00
2022-11-25T13:01:51.282Z,10.00
2022-11-25T13:04:44.760Z,10.00
2022-11-25T13:07:33.659Z,10.10
2022-11-25T13:10:26.992Z,10.00
2022-11-25T13:13:05.303Z,10.00
2022-11-25T13:15:39.126Z,10.00
2022-11-25T13:18:14.421Z,10.00
2022-11-25T13:20:48.715Z,10.00
2022-11-25T13:23:31.877Z,10.10
2022-11-25T13:26:38.131Z,10.10
2022-11-25T13:29:54.464Z,10.10
2022-11-25T13:32:30.262Z,10.10
2022-11-25T13:35:32.505Z,10.10
2022-11-25T13:38:02.408Z,10.10
2022-11-25T13:40:38.753Z,10.20
2022-11-25T13:43:21.154Z,10.20
2022-11-25T13:45:49.611Z,10.20
2022-11-25T13:48:21.833Z,10.30
2022-11-25T13:53:42.203Z,10.30
2022-11-25T13:56:16.574Z,10.20
2022-11-25T13:59:18.455Z,10.20
2022-11-25T14:01:55.875Z,10.10
2022-11-25T14:04:44.409Z,10.10
2022-11-25T14:07:26.378Z,10.10
2022-11-25T14:10:12.412Z,10.10
2022-11-25T14:12:55.329Z,10.20
2022-11-25T14:15:36.432Z,10.10
2022-11-25T14:21:49.705Z,10.20
2022-11-25T14:24:32.127Z,10.20
2022-11-25T14:27:02.203Z,10.20
2022-11-25T14:29:37.963Z,10.20
2022-11-25T14:32:11.701Z,10.10
2022-11-25T14:34:43.477Z,10.20
2022-11-25T14:37:18.005Z,10.10
2022-11-25T14:39:54.119Z,10.10
2022-11-25T14:42:28.123Z,10.10
2022-11-25T14:44:58.466Z,10.00
2022-11-25T14:47:28.410Z,10.00
2022-11-25T14:50:26.814Z,10.00
2022-11-25T14:52:48.902Z,10.00
2022-11-25T14:55:28.287Z,9.90
2022-11-25T14:57:58.125Z,10.00
2022-11-25T15:00:27.070Z,9.90
2022-11-25T15:02:57.649Z,9.90
2022-11-25T15:05:28.109Z,9.90
2022-11-25T15:08:02.685Z,9.90
2022-11-25T15:10:34.178Z,10.00
2022-11-25T15:13:11.788Z,9.90
2022-11-25T15:15:40.340Z,10.00
2022-11-25T15:18:12.723Z,10.00
2022-11-25T15:20:41.160Z,10.00
2022-11-25T15:23:17.182Z,9.90
2022-11-25T15:25:51.644Z,9.90
2022-11-25T15:28:21.791Z,9.90
2022-11-25T15:31:01.179Z,9.80
2022-11-25T15:33:31.026Z,9.90
2022-11-25T15:35:59.412Z,9.90
2022-11-25T15:38:41.141Z,9.90
2022-11-25T15:41:22.024Z,9.90
2022-11-25T15:43:55.997Z,9.90
2022-11-25T15:46:26.197Z,9.90
2022-11-25T15:48:58.446Z,9.90
2022-11-25T15:51:37.543Z,9.90
2022-11-25T15:54:14.708Z,9.90
2022-11-25T15:56:49.067Z,9.90
2022-11-25T15:59:42.426Z,9.90
2022-11-25T16:02:33.840Z,9.90
2022-11-25T16:05:25.403Z,9.90
2022-11-25T16:08:22.553Z,9.90
2022-11-25T16:10:52.979Z,9.90
2022-11-25T16:13:33.684Z,9.90
2022-11-25T16:16:12.260Z,9.90
2022-11-25T16:18:44.363Z,9.90
2022-11-25T16:21:14.916Z,9.80
2022-11-25T16:23:46.970Z,9.90
2022-11-25T16:26:18.626Z,9.90
2022-11-25T16:28:55.520Z,9.90
2022-11-25T16:31:26.504Z,9.90
2022-11-25T16:33:56.390Z,9.90
2022-11-25T16:36:24.615Z,9.90
2022-11-25T16:38:55.710Z,9.90
2022-11-25T16:41:25.976Z,9.90
2022-11-25T16:43:57.144Z,9.90
2022-11-25T16:46:29.349Z,9.90
2022-11-25T16:48:57.597Z,9.90
2022-11-25T16:51:26.309Z,9.90
2022-11-25T16:53:54.580Z,9.90
2022-11-25T16:56:27.391Z,9.90
2022-11-25T16:58:56.117Z,9.90
2022-11-25T17:01:27.570Z,9.90
2022-11-25T17:03:57.443Z,9.90
2022-11-25T17:06:27.380Z,9.90
2022-11-25T17:08:55.927Z,9.90
2022-11-25T17:11:30.677Z,9.80
2022-11-25T17:14:01.858Z,9.90
2022-11-25T17:16:31.430Z,9.90
2022-11-25T17:19:01.949Z,9.90
2022-11-25T17:21:30.310Z,9.90
2022-11-25T17:24:02.870Z,9.80
2022-11-25T17:26:37.566Z,9.80
2022-11-25T17:29:09.837Z,9.90
2022-11-25T17:31:39.256Z,9.90
2022-11-25T17:34:11.931Z,9.90
2022-11-25T17:36:40.282Z,9.90
2022-11-25T17:39:09.818Z,9.90
2022-11-25T17:41:40.346Z,9.90
2022-11-25T17:44:17.618Z,9.90
2022-11-25T17:46:45.849Z,9.90
2022-11-25T17:49:17.322Z,9.90
2022-11-25T17:51:45.682Z,9.90
2022-11-25T17:54:14.068Z,9.90
2022-11-25T17:56:47.768Z,9.90
2022-11-25T17:59:25.590Z,9.90
2022-11-25T18:01:56.158Z,9.90
2022-11-25T18:04:28.536Z,9.90
2022-11-25T18:06:56.778Z,9.90
2022-11-25T18:09:25.094Z,9.90
2022-11-25T18:11:57.959Z,9.90
2022-11-25T18:14:28.742Z,9.90
2022-11-25T18:16:59.256Z,9.90
2022-11-25T18:19:28.932Z,9.90
2022-11-25T18:22:01.259Z,9.90
2022-11-25T18:24:29.500Z,9.90
2022-11-25T18:26:57.817Z,9.90
2022-11-25T18:29:27.680Z,10.00
2022-11-25T18:31:59.424Z,10.00
2022-11-25T18:34:29.114Z,10.00
2022-11-25T18:36:57.359Z,10.00
2022-11-25T18:39:25.729Z,10.00
2022-11-25T18:41:58.242Z,9.90
2022-11-25T18:44:29.042Z,9.90
2022-11-25T18:46:57.413Z,9.90
2022-11-25T18:49:25.643Z,10.00
2022-11-25T18:51:55.516Z,9.90
2022-11-25T18:54:23.801Z,10.00
2022-11-25T18:56:53.118Z,10.00
2022-11-25T18:59:27.497Z,10.00
2022-11-25T19:01:55.888Z,10.00
2022-11-25T19:04:24.290Z,9.90
2022-11-25T19:06:52.723Z,9.90
2022-11-25T19:09:22.365Z,10.00
2022-11-25T19:11:53.707Z,10.00
2022-11-25T19:14:29.149Z,10.00
2022-11-25T19:16:58.608Z,10.00
2022-11-25T19:19:27.015Z,10.00
2022-11-25T19:21:55.251Z,10.00
2022-11-25T19:24:24.949Z,10.00
2022-11-25T19:26:57.039Z,10.00
2022-11-25T19:29:32.144Z,10.00
2022-11-25T19:32:03.194Z,10.00
2022-11-25T19:34:35.151Z,10.00
2022-11-25T19:37:03.583Z,9.90
2022-11-25T19:39:36.855Z,10.00
2022-11-25T19:42:05.317Z,10.00
2022-11-25T19:44:33.606Z,10.00
2022-11-25T19:47:15.344Z,10.00
2022-11-25T19:49:44.679Z,10.00
2022-11-25T19:52:18.138Z,10.00
2022-11-25T19:54:48.121Z,10.00
2022-11-25T19:57:18.127Z,10.00
2022-11-25T19:59:46.666Z,10.00
2022-11-25T20:02:17.412Z,10.00
2022-11-25T20:04:47.090Z,10.00
2022-11-25T20:07:17.415Z,10.00
2022-11-25T20:09:47.620Z,10.00
2022-11-25T20:12:22.443Z,10.00
2022-11-25T20:14:51.753Z,10.00
2022-11-25T20:17:26.040Z,10.00
2022-11-25T20:19:55.878Z,10.00
2022-11-25T20:22:30.540Z,10.00
2022-11-25T20:25:03.743Z,10.00
2022-11-25T20:27:32.033Z,10.00
2022-11-25T20:30:00.288Z,10.00
2022-11-25T20:32:30.286Z,10.00
2022-11-25T20:34:59.818Z,10.00
2022-11-25T20:37:40.366Z,10.00
2022-11-25T20:40:18.697Z,10.00
2022-11-25T20:42:47.565Z,10.00
2022-11-25T20:45:17.464Z,10.00
2022-11-25T20:47:47.151Z,10.00
2022-11-25T20:50:16.286Z,10.00
2022-11-25T20:52:45.013Z,10.00
2022-11-25T20:55:19.173Z,10.00
2022-11-25T20:57:48.262Z,10.00
2022-11-25T21:00:22.642Z,10.00
2022-11-25T21:02:51.596Z,10.00
2022-11-25T21:05:20.425Z,10.00
2022-11-25T21:07:51.134Z,10.10
2022-11-25T21:10:27.794Z,10.10
2022-11-25T21:12:57.073Z,10.10
2022-11-25T21:15:27.512Z,10.10
2022-11-25T21:17:57.687Z,10.10
2022-11-25T21:20:26.085Z,10.10
2022-11-25T21:22:57.976Z,10.10
2022-11-25T21:25:27.853Z,10.10
2022-11-25T21:27:56.241Z,10.10
2022-11-25T21:30:27.881Z,10.10
2022-11-25T21:32:57.645Z,10.10
2022-11-25T21:35:30.381Z,10.10
2022-11-25T21:37:59.212Z,10.20
2022-11-25T21:40:37.934Z,10.10
2022-11-25T21:43:07.649Z,10.10
2022-11-25T21:45:35.876Z,10.20
2022-11-25T21:48:04.345Z,10.20
2022-11-25T21:50:32.672Z,10.20
2022-11-25T21:53:02.172Z,10.20
2022-11-25T21:55:33.694Z,10.20
2022-11-25T21:58:03.872Z,10.20
2022-11-25T22:00:32.350Z,10.20
2022-11-25T22:03:00.662Z,10.20
2022-11-25T22:05:30.562Z,10.20
2022-11-25T22:07:59.754Z,10.20
2022-11-25T22:10:28.189Z,10.30
2022-11-25T22:12:56.424Z,10.20
2022-11-25T22:15:26.100Z,10.30
2022-11-25T22:17:57.072Z,10.20
2022-11-25T22:20:30.590Z,10.30
2022-11-25T22:22:58.914Z,10.30
2022-11-25T22:25:29.781Z,10.30
2022-11-25T22:32:56.529Z,10.30
2022-11-25T22:35:54.880Z,10.30
